createdAt,value
2022-11-30T00:00:14.311Z,100572.88
2022-11-30T00:05:15.732Z,100570.00
2022-11-30T00:10:17.576Z,100557.66
2022-11-30T00:15:18.915Z,100568.50
2022-11-30T00:20:20.264Z,100554.69
2022-11-30T00:25:21.618Z,100561.91
2022-11-30T00:30:22.952Z,100553.41
2022-11-30T00:35:24.459Z,100557.03
2022-11-30T00:40:26.003Z,100533.56
2022-11-30T00:45:27.332Z,100561.91
2022-11-30T00:50:28.591Z,100559.16
2022-11-30T00:55:31.790Z,100550.44
2022-11-30T01:00:33.317Z,100546.59
2022-11-30T01:05:34.959Z,100541.09
2022-11-30T01:10:38.614Z,100550.44
2022-11-30T01:15:42.515Z,100557.44
2022-11-30T01:20:44.127Z,100554.78
2022-11-30T01:25:54.092Z,100553.84
2022-11-30T01:30:57.566Z,100555.75
2022-11-30T01:36:04.547Z,100554.28
2022-11-30T01:41:07.552Z,100552.56
2022-11-30T01:46:24.354Z,100555.31
2022-11-30T01:51:32.776Z,100561.47
2022-11-30T01:56:34.201Z,100551.28
2022-11-30T02:01:35.711Z,100560.31
2022-11-30T02:06:37.012Z,100556.59
2022-11-30T02:11:38.336Z,100562.88
2022-11-30T02:16:42.375Z,100573.56
2022-11-30T02:21:53.127Z,100569.44
2022-11-30T02:27:04.221Z,100575.38
2022-11-30T02:32:28.844Z,100569.13
2022-11-30T02:37:31.860Z,100568.38
2022-11-30T02:42:33.150Z,100562.78
2022-11-30T02:47:46.796Z,100566.25
2022-11-30T02:52:49.028Z,100567.22
2022-11-30T02:57:50.330Z,100573.28
2022-11-30T03:02:51.646Z,100575.94
2022-11-30T03:07:53.051Z,100576.16
2022-11-30T03:13:00.460Z,100582.31
2022-11-30T03:18:05.152Z,100589.44
2022-11-30T03:23:06.404Z,100585.06
2022-11-30T03:28:07.692Z,100578.34
2022-11-30T03:33:08.996Z,100581.63
2022-11-30T03:38:10.452Z,100591.31
2022-11-30T03:43:11.740Z,100581.22
2022-11-30T03:48:13.037Z,100576.13
2022-11-30T03:53:14.364Z,100588.66
2022-11-30T03:58:15.690Z,100577.72
2022-11-30T04:03:17.149Z,100589.50
2022-11-30T04:08:18.489Z,100583.91
2022-11-30T04:13:21.292Z,100593.75
2022-11-30T04:18:24.566Z,100597.19
2022-11-30T04:23:30.710Z,100583.34
2022-11-30T04:28:32.328Z,100596.53
2022-11-30T04:33:33.608Z,100594.41
2022-11-30T04:38:36.644Z,100601.19
2022-11-30T04:43:38.278Z,100599.06
2022-11-30T04:48:39.570Z,100605.63
2022-11-30T04:53:40.866Z,100592.78
2022-11-30T04:58:42.208Z,100591.06
2022-11-30T05:03:43.462Z,100598.19
2022-11-30T05:08:44.812Z,100588.22
2022-11-30T05:13:46.399Z,100596.53
2022-11-30T05:18:47.712Z,100599.91
2022-11-30T05:23:49.046Z,100587.06
2022-11-30T05:28:50.393Z,100616.56
2022-11-30T05:33:53.384Z,100573.13
2022-11-30T05:38:54.689Z,100623.50
2022-11-30T05:43:56.573Z,100618.19
2022-11-30T05:48:57.887Z,100613.81
2022-11-30T05:53:59.608Z,100618.63
2022-11-30T05:59:00.944Z,100607.13
2022-11-30T06:04:08.860Z,100630.41
2022-11-30T06:09:10.536Z,100615.88
2022-11-30T06:14:11.876Z,100623.94
2022-11-30T06:19:13.130Z,100634.47
2022-11-30T06:24:14.455Z,100638.16
2022-11-30T06:29:15.810Z,100616.56
2022-11-30T06:34:17.125Z,100624.56
2022-11-30T06:39:31.411Z,100636.03
2022-11-30T06:44:39.523Z,100637.13
2022-11-30T06:49:40.946Z,100633.06
2022-11-30T06:54:42.333Z,100643.56
2022-11-30T06:59:43.764Z,100640.59
2022-11-30T07:04:45.820Z,100644.97
2022-11-30T07:09:47.411Z,100653.69
2022-11-30T07:14:52.679Z,100646.66
2022-11-30T07:19:54.062Z,100656.00
2022-11-30T07:25:14.174Z,100659.84
2022-11-30T07:30:15.682Z,100659.97
2022-11-30T07:35:16.998Z,100660.50
2022-11-30T07:40:18.263Z,100663.03
2022-11-30T07:45:19.651Z,100675.78
2022-11-30T07:50:21.362Z,100672.94
2022-11-30T07:55:23.794Z,100660.31
2022-11-30T08:00:25.384Z,100671.88
2022-11-30T08:05:26.886Z,100679.31
2022-11-30T08:10:28.171Z,100674.53
2022-11-30T08:15:32.900Z,100660.06
2022-11-30T08:20:34.884Z,100678.75
2022-11-30T08:25:36.169Z,100671.78
2022-11-30T08:30:37.498Z,100645.50
2022-11-30T08:35:38.816Z,100676.00
2022-11-30T08:40:40.198Z,100673.13
2022-11-30T08:45:41.504Z,100674.75
2022-11-30T08:50:42.855Z,100682.41
2022-11-30T08:55:44.160Z,100696.22
2022-11-30T09:00:45.620Z,100660.81
2022-11-30T09:05:47.032Z,100696.22
2022-11-30T09:10:48.308Z,100705.69
2022-11-30T09:15:56.025Z,100706.63
2022-11-30T09:21:02.139Z,100711.72
2022-11-30T09:26:06.424Z,100708.97
2022-11-30T09:31:11.786Z,100711.50
2022-11-30T09:36:15.428Z,100711.09
2022-11-30T09:41:28.702Z,100708.56
2022-11-30T09:47:04.379Z,100703.78
2022-11-30T09:52:11.642Z,100711.53
2022-11-30T09:57:29.566Z,100711.75
2022-11-30T10:02:33.815Z,100701.97
2022-11-30T10:07:56.829Z,100709.97
2022-11-30T10:13:17.014Z,100715.59
2022-11-30T10:18:44.044Z,100710.28
2022-11-30T10:24:04.414Z,100718.97
2022-11-30T10:29:18.610Z,100710.06
2022-11-30T10:34:35.131Z,100704.31
2022-11-30T10:39:45.516Z,100701.97
2022-11-30T10:45:03.187Z,100701.03
2022-11-30T10:50:06.292Z,100705.56
2022-11-30T10:55:15.217Z,100689.22
2022-11-30T11:00:18.181Z,100699.22
2022-11-30T11:05:30.786Z,100703.97
2022-11-30T11:10:42.700Z,100683.66
2022-11-30T11:15:58.581Z,100684.72
2022-11-30T11:21:06.316Z,100686.41
2022-11-30T11:26:29.662Z,100697.78
2022-11-30T11:31:46.274Z,100675.59
2022-11-30T11:36:47.558Z,100693.69
2022-11-30T11:41:48.909Z,100695.56
2022-11-30T11:47:02.667Z,100682.84
2022-11-30T11:52:17.950Z,100681.44
2022-11-30T11:57:25.189Z,100685.38
2022-11-30T12:02:37.653Z,100684.56
2022-11-30T12:07:50.427Z,100655.84
2022-11-30T12:12:55.095Z,100677.50
2022-11-30T12:18:15.933Z,100680.28
2022-11-30T12:23:34.472Z,100684.31
2022-11-30T12:28:41.948Z,100691.25
2022-11-30T12:34:21.378Z,100692.41
2022-11-30T12:39:31.813Z,100690.28
2022-11-30T12:44:42.553Z,100683.16
2022-11-30T12:50:10.305Z,100691.22
2022-11-30T12:55:35.495Z,100696.75
2022-11-30T13:01:06.443Z,100694.72
2022-11-30T13:06:14.032Z,100701.09
2022-11-30T13:11:24.443Z,100692.59
2022-11-30T13:16:26.898Z,100685.38
2022-11-30T13:21:39.557Z,100683.03
2022-11-30T13:26:54.374Z,100698.34
2022-11-30T13:32:05.228Z,100697.06
2022-11-30T13:37:09.236Z,100687.94
2022-11-30T13:42:10.512Z,100693.25
2022-11-30T13:47:19.487Z,100687.72
2022-11-30T13:52:59.095Z,100684.03
2022-11-30T13:58:00.424Z,100690.06
2022-11-30T14:03:20.140Z,100685.81
2022-11-30T14:08:21.439Z,100685.38
2022-11-30T14:13:32.046Z,100693.34
2022-11-30T14:18:40.497Z,100690.47
2022-11-30T14:23:54.132Z,100694.63
2022-11-30T14:29:10.859Z,100706.00
2022-11-30T14:34:23.359Z,100716.63
2022-11-30T14:39:31.827Z,100708.66
2022-11-30T14:44:40.726Z,100698.25
2022-11-30T14:49:47.549Z,100670.28
2022-11-30T14:55:10.487Z,100699.44
2022-11-30T15:00:20.778Z,100672.63
2022-11-30T15:05:26.755Z,100702.31
2022-11-30T15:10:34.020Z,100701.53
2022-11-30T15:15:41.413Z,100707.72
2022-11-30T15:20:57.544Z,100707.09
2022-11-30T15:26:04.415Z,100702.19
2022-11-30T15:31:09.733Z,100701.44
2022-11-30T15:36:23.446Z,100706.84
2022-11-30T15:41:34.708Z,100712.38
2022-11-30T15:46:45.766Z,100715.69
2022-11-30T15:51:59.679Z,100725.16
2022-11-30T15:57:05.956Z,100723.66
2022-11-30T16:02:31.589Z,100725.03
2022-11-30T16:07:39.754Z,100723.56
2022-11-30T16:12:43.200Z,100732.59
2022-11-30T16:17:44.525Z,100724.50
2022-11-30T16:22:48.144Z,100743.22
2022-11-30T16:27:50.326Z,100716.19
2022-11-30T16:32:51.638Z,100746.28
2022-11-30T16:37:53.133Z,100732.91
2022-11-30T16:42:54.479Z,100747.88
2022-11-30T16:47:55.738Z,100751.09
2022-11-30T16:52:57.047Z,100763.22
2022-11-30T16:57:58.588Z,100764.91
2022-11-30T17:03:06.267Z,100767.56
2022-11-30T17:08:09.694Z,100772.34
2022-11-30T17:13:15.095Z,100774.06
2022-11-30T17:18:16.391Z,100778.41
2022-11-30T17:23:17.774Z,100772.56
2022-11-30T17:28:19.090Z,100773.91
2022-11-30T17:33:20.406Z,100781.56
2022-11-30T17:38:21.721Z,100779.53
2022-11-30T17:43:23.072Z,100793.25
2022-11-30T17:48:24.475Z,100791.25
2022-11-30T17:53:25.866Z,100795.91
2022-11-30T17:58:32.496Z,100794.03
2022-11-30T18:03:35.522Z,100788.81
2022-11-30T18:08:37.905Z,100782.97
2022-11-30T18:13:39.905Z,100788.81
2022-11-30T18:18:47.082Z,100805.00
2022-11-30T18:23:50.006Z,100802.09
2022-11-30T18:28:56.477Z,100808.59
2022-11-30T18:34:02.926Z,100810.94
2022-11-30T18:39:04.185Z,100805.19
2022-11-30T18:44:05.704Z,100814.56
2022-11-30T18:49:07.097Z,100816.56
2022-11-30T18:54:10.225Z,100817.53
2022-11-30T18:59:14.536Z,100816.13
2022-11-30T19:04:15.937Z,100812.53
2022-11-30T19:09:19.033Z,100819.81
2022-11-30T19:14:20.345Z,100816.38
2022-11-30T19:19:21.960Z,100811.13
2022-11-30T19:24:23.837Z,100819.28
2022-11-30T19:29:25.232Z,100824.72
2022-11-30T19:34:26.597Z,100824.72
2022-11-30T19:39:27.926Z,100843.94
2022-11-30T19:44:29.244Z,100834.28
2022-11-30T19:49:30.601Z,100834.41
2022-11-30T19:54:31.957Z,100836.53
2022-11-30T19:59:33.288Z,100837.16
2022-11-30T20:04:34.605Z,100833.41
2022-11-30T20:09:35.885Z,100851.22
2022-11-30T20:14:37.219Z,100852.28
2022-11-30T20:19:38.462Z,100835.22
2022-11-30T20:24:39.789Z,100833.19
2022-11-30T20:29:41.043Z,100848.94
2022-11-30T20:34:46.317Z,100855.53
2022-11-30T20:39:47.867Z,100846.28
2022-11-30T20:44:49.843Z,100853.94
2022-11-30T20:49:51.376Z,100851.59
2022-11-30T20:54:52.643Z,100851.78
2022-11-30T20:59:53.875Z,100854.97
2022-11-30T21:04:55.160Z,100861.81
2022-11-30T21:09:56.459Z,100860.97
2022-11-30T21:14:57.843Z,100868.38
2022-11-30T21:20:00.507Z,100855.97
2022-11-30T21:25:01.788Z,100855.38
2022-11-30T21:30:04.495Z,100869.03
2022-11-30T21:35:06.536Z,100867.31
2022-11-30T21:40:08.451Z,100852.84
2022-11-30T21:45:10.712Z,100859.34
2022-11-30T21:50:12.387Z,100861.28
2022-11-30T21:55:13.711Z,100856.69
2022-11-30T22:00:15.314Z,100858.16
2022-11-30T22:05:16.573Z,100857.94
2022-11-30T22:10:17.833Z,100864.91
2022-11-30T22:15:19.085Z,100875.47
2022-11-30T22:20:20.339Z,100869.63
2022-11-30T22:25:21.603Z,100859.88
2022-11-30T22:30:22.871Z,100866.69
2022-11-30T22:35:24.256Z,100872.59
2022-11-30T22:40:25.540Z,100868.34
2022-11-30T22:45:26.811Z,100860.63
2022-11-30T22:50:28.108Z,100880.00
2022-11-30T22:55:29.555Z,100865.56
2022-11-30T23:00:30.891Z,100886.78
2022-11-30T23:05:34.531Z,100880.31
2022-11-30T23:10:35.889Z,100874.59
2022-11-30T23:15:37.185Z,100895.34
2022-11-30T23:20:38.600Z,100874.59
2022-11-30T23:25:39.912Z,100873.81
2022-11-30T23:30:41.240Z,100884.31
2022-11-30T23:35:43.478Z,100859.00
2022-11-30T23:40:44.742Z,100875.72
2022-11-30T23:45:46.275Z,100881.66
2022-11-30T23:50:47.527Z,100879.56
2022-11-30T23:55:49.175Z,100882.03
